Time;durP1;ratioP1;P1;durP2;ratioP2;P2;SDS_P1;SDS_P2;PMS_P1;PMS_P2;Temp;Humidity;BMP_temperature;BMP_pressure;BME280_temperature;BME280_humidity;BME280_pressure;Samples;Min_cycle;Max_cycle;Signal;HPM_P1;HPM_P2
2021/11/15 00:02:11;;;;;;;;;;;;;;;;;;5040572;28;19917;-85
2021/11/15 00:04:37;;;;;;;;;;;;;;;;;;5056857;28;20290;-86
2021/11/15 00:07:03;;;;;;;;;;;;;;;;;;5057560;28;19912;-85
2021/11/15 00:09:30;;;;;;;;;;;;;;;;;;5057249;28;20390;-85
2021/11/15 00:11:56;;;;;;;;;;;;;;;;;;5057363;28;19927;-86
2021/11/15 00:14:23;;;;;;;;;;;;;;;;;;5038997;28;19924;-85
2021/11/15 00:16:50;;;;;;;;;;;;;;;;;;5053823;28;19960;-86
2021/11/15 00:19:16;;;;;;;;;;;;;;;;;;5054600;28;19932;-86
2021/11/15 00:21:42;;;;;;;;;;;;;;;;;;5053335;28;19923;-86
2021/11/15 00:24:08;;;;;;;;;;;;;;;;;;5021432;28;19916;-86
2021/11/15 00:26:37;;;;;;;;;;;;;;;;;;5021172;28;19913;-87
2021/11/15 00:29:03;;;;;;;;;;;;;;;;;;5020377;28;19913;-86
2021/11/15 00:31:30;;;;;;;;;;;;;;;;;;5051517;28;19920;-87
2021/11/15 00:33:56;;;;;;;;;;;;;;;;;;5047076;28;20444;-87
2021/11/15 00:36:23;;;;;;;;;;;;;;;;;;5037804;28;19913;-86
2021/11/15 00:38:49;;;;;;;;;;;;;;;;;;5053989;28;19912;-86
2021/11/15 00:41:14;;;;;;;;;;;;;;;;;;5053754;28;19938;-86
2021/11/15 00:43:40;;;;;;;;;;;;;;;;;;5020361;28;19940;-86
2021/11/15 00:46:05;;;;;;;;;;;;;;;;;;5017642;28;19917;-84
2021/11/15 00:48:30;;;;;;;;;;;;;;;;;;5009725;28;19913;-85
2021/11/15 00:50:56;;;;;;;;;;;;;;;;;;5053193;28;20014;-86
2021/11/15 00:53:22;;;;;;;;;;;;;;;;;;5053666;28;19924;-86
2021/11/15 00:55:48;;;;;;;;;;;;;;;;;;5053429;28;20462;-85
2021/11/15 00:58:15;;;;;;;;;;;;;;;;;;5052581;28;20322;-86
2021/11/15 01:00:42;;;;;;;;;;;;;;;;;;5020178;28;19917;-85
2021/11/15 01:03:08;;;;;;;;;;;;;;;;;;5020264;28;20003;-85
2021/11/15 01:05:35;;;;;;;;;;;;;;;;;;5020115;28;19963;-85
2021/11/15 01:08:00;;;;;;;;;;;;;;;;;;5020028;28;20476;-85
2021/11/15 01:10:26;;;;;;;;;;;;;;;;;;5020265;28;20008;-85
2021/11/15 01:12:52;;;;;;;;;;;;;;;;;;5019474;28;19917;-85
2021/11/15 01:15:19;;;;;;;;;;;;;;;;;;5020153;28;20000;-86
2021/11/15 01:17:45;;;;;;;;;;;;;;;;;;5020184;28;19920;-85
2021/11/15 01:20:11;;;;;;;;;;;;;;;;;;5036362;28;20244;-86
2021/11/15 01:22:37;;;;;;;;;;;;;;;;;;5053208;28;20059;-86
2021/11/15 01:25:03;;;;;;;;;;;;;;;;;;5019315;28;19920;-85
2021/11/15 01:27:28;;;;;;;;;;;;;;;;;;5035734;28;19991;-86
2021/11/15 01:29:54;;;;;;;;;;;;;;;;;;5052170;28;19916;-85
2021/11/15 01:32:21;;;;;;;;;;;;;;;;;;5053058;28;19912;-85
2021/11/15 01:34:47;;;;;;;;;;;;;;;;;;5052393;28;19935;-85
2021/11/15 01:37:13;;;;;;;;;;;;;;;;;;5019234;28;19967;-86
2021/11/15 01:39:41;;;;;;;;;;;;;;;;;;5052686;28;19978;-86
2021/11/15 01:42:06;;;;;;;;;;;;;;;;;;5015426;28;19917;-85
2021/11/15 01:44:33;;;;;;;;;;;;;;;;;;5049087;28;20264;-85
2021/11/15 01:46:58;;;;;;;;;;;;;;;;;;5036118;28;19920;-86
2021/11/15 01:49:23;;;;;;;;;;;;;;;;;;5019110;28;19913;-86
2021/11/15 01:51:49;;;;;;;;;;;;;;;;;;5019061;28;19970;-86
2021/11/15 01:54:14;;;;;;;;;;;;;;;;;;5052680;28;20015;-85
2021/11/15 01:56:40;;;;;;;;;;;;;;;;;;5052462;28;20290;-85
2021/11/15 01:59:06;;;;;;;;;;;;;;;;;;5019180;28;19938;-86
2021/11/15 02:01:32;;;;;;;;;;;;;;;;;;5019281;28;19963;-86
2021/11/15 02:03:59;;;;;;;;;;;;;;;;;;5019210;28;20321;-86
2021/11/15 02:06:24;;;;;;;;;;;;;;;;;;5019186;28;19913;-86
2021/11/15 02:08:52;;;;;;;;;;;;;;;;;;5052053;28;19943;-86
2021/11/15 02:11:18;;;;;;;;;;;;;;;;;;5051923;28;20263;-86
2021/11/15 02:13:45;;;;;;;;;;;;;;;;;;5018770;28;20315;-86
2021/11/15 02:16:11;;;;;;;;;;;;;;;;;;5019187;28;19970;-85
2021/11/15 02:18:37;;;;;;;;;;;;;;;;;;5019058;28;19913;-86
2021/11/15 02:21:03;;;;;;;;;;;;;;;;;;5018880;28;19913;-86
2021/11/15 02:23:29;;;;;;;;;;;;;;;;;;5018716;28;19929;-86
2021/11/15 02:25:55;;;;;;;;;;;;;;;;;;5051980;28;19958;-86
2021/11/15 02:28:29;;;;;;;;;;;;;;;;;;5051708;28;19916;-86
2021/11/15 02:30:54;;;;;;;;;;;;;;;;;;5051526;28;19919;-86
2021/11/15 02:33:20;;;;;;;;;;;;;;;;;;5051317;28;19921;-86
2021/11/15 02:35:46;;;;;;;;;;;;;;;;;;5034805;28;20291;-85
2021/11/15 02:38:13;;;;;;;;;;;;;;;;;;5017938;28;19916;-86
2021/11/15 02:40:38;;;;;;;;;;;;;;;;;;5018755;28;19912;-85
2021/11/15 02:43:04;;;;;;;;;;;;;;;;;;5051343;28;19996;-86
2021/11/15 02:45:31;;;;;;;;;;;;;;;;;;5051596;28;20387;-86
2021/11/15 02:47:57;;;;;;;;;;;;;;;;;;5015199;28;20617;-86
2021/11/15 02:50:25;;;;;;;;;;;;;;;;;;5015380;28;19920;-86
2021/11/15 02:52:56;;;;;;;;;;;;;;;;;;5051298;28;19931;-86
2021/11/15 02:55:23;;;;;;;;;;;;;;;;;;5051810;28;20398;-88
2021/11/15 02:57:49;;;;;;;;;;;;;;;;;;5051086;28;19919;-86
2021/11/15 03:00:20;;;;;;;;;;;;;;;;;;5014730;28;19917;-86
2021/11/15 03:02:47;;;;;;;;;;;;;;;;;;5014366;28;19921;-86
2021/11/15 03:05:14;;;;;;;;;;;;;;;;;;5014947;28;19921;-86
2021/11/15 03:07:49;;;;;;;;;;;;;;;;;;5015045;28;19956;-87
2021/11/15 03:10:15;;;;;;;;;;;;;;;;;;5015137;28;19913;-86
2021/11/15 03:12:41;;;;;;;;;;;;;;;;;;5029649;28;20008;-86
2021/11/15 03:15:07;;;;;;;;;;;;;;;;;;5051360;28;19962;-87
2021/11/15 03:17:38;;;;;;;;;;;;;;;;;;5034731;28;19917;-86
2021/11/15 03:20:03;;;;;;;;;;;;;;;;;;5051342;28;19913;-86
2021/11/15 03:22:29;;;;;;;;;;;;;;;;;;5034586;28;20019;-86
2021/11/15 03:24:56;;;;;;;;;;;;;;;;;;5051281;28;19939;-86
2021/11/15 03:27:21;;;;;;;;;;;;;;;;;;5034411;28;19975;-87
2021/11/15 03:29:46;;;;;;;;;;;;;;;;;;5017517;28;19948;-86
2021/11/15 03:32:12;;;;;;;;;;;;;;;;;;5017178;28;19935;-86
2021/11/15 03:34:38;;;;;;;;;;;;;;;;;;5035030;28;19959;-86
2021/11/15 03:37:09;;;;;;;;;;;;;;;;;;5051352;28;19953;-86
2021/11/15 03:39:36;;;;;;;;;;;;;;;;;;5018160;28;19919;-86
2021/11/15 03:42:02;;;;;;;;;;;;;;;;;;5017773;28;19943;-86
2021/11/15 03:44:27;;;;;;;;;;;;;;;;;;5034669;28;19912;-86
2021/11/15 03:46:53;;;;;;;;;;;;;;;;;;5018066;28;19913;-86
2021/11/15 03:49:18;;;;;;;;;;;;;;;;;;5035517;28;19917;-86
2021/11/15 03:51:43;;;;;;;;;;;;;;;;;;5021921;28;20008;-87
2021/11/15 03:54:09;;;;;;;;;;;;;;;;;;5021634;28;19928;-86
2021/11/15 03:56:35;;;;;;;;;;;;;;;;;;5054452;28;19913;-86
2021/11/15 03:59:01;;;;;;;;;;;;;;;;;;5054701;28;19912;-86
2021/11/15 04:01:29;;;;;;;;;;;;;;;;;;5037867;28;19913;-86
2021/11/15 04:03:58;;;;;;;;;;;;;;;;;;5054205;28;19917;-86
2021/11/15 04:06:27;;;;;;;;;;;;;;;;;;5054975;28;19924;-86
2021/11/15 04:08:54;;;;;;;;;;;;;;;;;;5054841;28;19913;-86
2021/11/15 04:11:21;;;;;;;;;;;;;;;;;;5038048;28;19925;-86
2021/11/15 04:13:48;;;;;;;;;;;;;;;;;;5021311;28;19913;-86
2021/11/15 04:16:15;;;;;;;;;;;;;;;;;;5037824;28;19919;-86
2021/11/15 04:18:46;;;;;;;;;;;;;;;;;;5021517;28;20367;-86
2021/11/15 04:21:12;;;;;;;;;;;;;;;;;;5020888;28;19963;-86
2021/11/15 04:23:38;;;;;;;;;;;;;;;;;;5037953;28;19913;-86
2021/11/15 04:26:04;;;;;;;;;;;;;;;;;;5020827;28;19924;-86
2021/11/15 04:28:31;;;;;;;;;;;;;;;;;;5020106;28;19966;-86
2021/11/15 04:30:58;;;;;;;;;;;;;;;;;;5053826;28;20288;-86
2021/11/15 04:33:24;;;;;;;;;;;;;;;;;;5053987;28;19964;-87
2021/11/15 04:35:50;;;;;;;;;;;;;;;;;;5053559;28;19936;-86
2021/11/15 04:38:16;;;;;;;;;;;;;;;;;;5017597;28;19924;-87
2021/11/15 04:40:41;;;;;;;;;;;;;;;;;;5050405;28;19913;-86
2021/11/15 04:43:08;;;;;;;;;;;;;;;;;;5050074;28;19956;-86
2021/11/15 04:45:34;;;;;;;;;;;;;;;;;;5053058;28;19912;-86
2021/11/15 04:47:59;;;;;;;;;;;;;;;;;;5020875;28;20022;-87
2021/11/15 04:50:26;;;;;;;;;;;;;;;;;;5036719;28;19920;-86
2021/11/15 04:52:52;;;;;;;;;;;;;;;;;;5053853;28;20039;-86
2021/11/15 04:55:18;;;;;;;;;;;;;;;;;;5053596;28;20341;-86
2021/11/15 04:57:44;;;;;;;;;;;;;;;;;;5052988;28;19912;-87
2021/11/15 05:00:11;;;;;;;;;;;;;;;;;;5036941;28;20008;-86
2021/11/15 05:02:36;;;;;;;;;;;;;;;;;;5036213;28;19920;-86
2021/11/15 05:05:01;;;;;;;;;;;;;;;;;;5036590;28;19962;-83
2021/11/15 05:07:27;;;;;;;;;;;;;;;;;;5052645;28;19939;-83
2021/11/15 05:09:52;;;;;;;;;;;;;;;;;;5016131;28;19913;-83
2021/11/15 05:12:17;;;;;;;;;;;;;;;;;;5023463;28;19925;-84
2021/11/15 05:14:42;;;;;;;;;;;;;;;;;;5049379;28;19913;-83
2021/11/15 05:17:08;;;;;;;;;;;;;;;;;;5016409;28;19924;-82
2021/11/15 05:19:33;;;;;;;;;;;;;;;;;;5032798;28;20416;-82
2021/11/15 05:21:58;;;;;;;;;;;;;;;;;;5020962;28;19928;-82
2021/11/15 05:24:25;;;;;;;;;;;;;;;;;;5035884;28;19923;-87
2021/11/15 05:26:50;;;;;;;;;;;;;;;;;;5036344;28;19920;-86
2021/11/15 05:29:17;;;;;;;;;;;;;;;;;;5036173;28;19912;-86
2021/11/15 05:31:42;;;;;;;;;;;;;;;;;;5036194;28;19913;-86
2021/11/15 05:34:07;;;;;;;;;;;;;;;;;;5036124;28;19916;-85
2021/11/15 05:36:32;;;;;;;;;;;;;;;;;;5036155;28;20015;-86
2021/11/15 05:38:58;;;;;;;;;;;;;;;;;;5037044;28;20413;-86
2021/11/15 05:41:24;;;;;;;;;;;;;;;;;;5049978;28;19923;-87
2021/11/15 05:43:49;;;;;;;;;;;;;;;;;;5035832;28;19925;-86
2021/11/15 05:46:14;;;;;;;;;;;;;;;;;;5052070;28;19916;-87
2021/11/15 05:48:40;;;;;;;;;;;;;;;;;;5019019;28;19922;-87
2021/11/15 05:51:05;;;;;;;;;;;;;;;;;;5035446;28;19921;-86
2021/11/15 05:53:30;;;;;;;;;;;;;;;;;;5051153;28;19913;-85
2021/11/15 05:55:57;;;;;;;;;;;;;;;;;;5032393;28;19956;-86
2021/11/15 05:58:22;;;;;;;;;;;;;;;;;;5032382;28;19917;-85
2021/11/15 06:00:49;;;;;;;;;;;;;;;;;;5028694;28;19920;-88
2021/11/15 06:03:16;;;;;;;;;;;;;;;;;;5049749;28;19917;-87
2021/11/15 06:05:41;;;;;;;;;;;;;;;;;;5048576;28;19921;-87
2021/11/15 06:08:06;;;;;;;;;;;;;;;;;;5048752;28;20113;-87
2021/11/15 06:10:32;;;;;;;;;;;;;;;;;;5048251;28;20386;-88
2021/11/15 06:12:57;;;;;;;;;;;;;;;;;;5035649;28;20270;-87
2021/11/15 06:15:22;;;;;;;;;;;;;;;;;;5018769;28;20355;-85
2021/11/15 06:17:48;;;;;;;;;;;;;;;;;;5035333;28;20003;-87
2021/11/15 06:20:14;;;;;;;;;;;;;;;;;;5018128;28;20370;-84
2021/11/15 06:22:39;;;;;;;;;;;;;;;;;;5018924;28;20401;-89
2021/11/15 06:25:05;;;;;;;;;;;;;;;;;;5019029;28;20376;-90
2021/11/15 06:27:31;;;;;;;;;;;;;;;;;;5017766;28;19933;-84
2021/11/15 06:29:56;;;;;;;;;;;;;;;;;;5034389;28;19916;-86
2021/11/15 06:32:21;;;;;;;;;;;;;;;;;;5033022;28;19956;-86
2021/11/15 06:34:46;;;;;;;;;;;;;;;;;;5018624;28;20279;-86
2021/11/15 06:37:12;;;;;;;;;;;;;;;;;;5014738;28;19917;-86
2021/11/15 06:39:38;;;;;;;;;;;;;;;;;;5006967;28;19963;-86
2021/11/15 06:42:04;;;;;;;;;;;;;;;;;;5034153;28;19916;-86
2021/11/15 06:44:31;;;;;;;;;;;;;;;;;;5051170;28;20302;-87
2021/11/15 06:46:56;;;;;;;;;;;;;;;;;;5054167;28;19927;-86
2021/11/15 06:49:22;;;;;;;;;;;;;;;;;;5017688;28;19965;-86
2021/11/15 06:51:49;;;;;;;;;;;;;;;;;;5064871;28;20358;-86
2021/11/15 06:54:14;;;;;;;;;;;;;;;;;;5051277;28;19927;-87
2021/11/15 06:56:41;;;;;;;;;;;;;;;;;;5018346;28;19917;-86
2021/11/15 06:59:07;;;;;;;;;;;;;;;;;;5018180;28;20405;-87
2021/11/15 07:01:36;;;;;;;;;;;;;;;;;;5017899;28;20382;-87
2021/11/15 07:07:39;;;;;;;;;;;;;;;;;;5038420;28;19971;-87
2021/11/15 07:10:05;;;;;;;;;;;;;;;;;;5048566;28;19929;-87
2021/11/15 07:12:31;;;;;;;;;;;;;;;;;;5015004;28;19967;-87
2021/11/15 07:14:56;;;;;;;;;;;;;;;;;;5049936;28;19924;-89
2021/11/15 07:17:23;;;;;;;;;;;;;;;;;;5019005;28;19965;-95
2021/11/15 07:20:11;;;;;;;;;;;;;;;;;;5051967;28;19912;-95
2021/11/15 07:23:02;;;;;;;;;;;;;;;;;;5050716;28;19917;-94
2021/11/15 07:25:59;;;;;;;;;;;;;;;;;;5058398;28;20339;-95
2021/11/15 07:28:25;;;;;;;;;;;;;;;;;;5022734;28;19908;-94
2021/11/15 07:30:54;;;;;;;;;;;;;;;;;;5022377;28;20007;-93
2021/11/15 07:33:20;;;;;;;;;;;;;;;;;;5023321;28;19912;-93
2021/11/15 07:35:46;;;;;;;;;;;;;;;;;;5022709;28;19921;-94
2021/11/15 07:38:11;;;;;;;;;;;;;;;;;;5019466;28;19913;-93
2021/11/15 07:40:37;;;;;;;;;;;;;;;;;;5052096;28;19943;-91
2021/11/15 07:43:02;;;;;;;;;;;;;;;;;;5052116;28;20271;-93
2021/11/15 07:45:28;;;;;;;;;;;;;;;;;;5055413;28;19919;-92
2021/11/15 07:47:53;;;;;;;;;;;;;;;;;;5022446;28;19913;-93
2021/11/15 07:50:18;;;;;;;;;;;;;;;;;;5022380;28;19923;-92
2021/11/15 07:52:43;;;;;;;;;;;;;;;;;;5021826;28;19920;-91
2021/11/15 07:55:10;;;;;;;;;;;;;;;;;;5022292;28;19916;-93
2021/11/15 07:57:38;;;;;;;;;;;;;;;;;;5022133;28;19919;-91
2021/11/15 08:00:04;;;;;;;;;;;;;;;;;;5022167;28;19913;-92
2021/11/15 08:02:29;;;;;;;;;;;;;;;;;;5038245;28;19920;-88
2021/11/15 08:04:55;;;;;;;;;;;;;;;;;;5021672;28;19921;-89
2021/11/15 08:07:20;;;;;;;;;;;;;;;;;;5021471;28;20374;-88
2021/11/15 08:09:46;;;;;;;;;;;;;;;;;;5021763;28;19923;-88
2021/11/15 08:12:11;;;;;;;;;;;;;;;;;;5021708;28;20371;-92
2021/11/15 08:14:39;;;;;;;;;;;;;;;;;;5021667;28;19913;-92
2021/11/15 08:17:04;;;;;;;;;;;;;;;;;;5054875;28;19971;-93
2021/11/15 08:19:30;;;;;;;;;;;;;;;;;;5055205;28;20330;-93
2021/11/15 08:21:55;;;;;;;;;;;;;;;;;;5021493;28;19917;-93
2021/11/15 08:24:25;;;;;;;;;;;;;;;;;;5054612;28;19960;-91
2021/11/15 08:26:57;;;;;;;;;;;;;;;;;;5038146;28;20355;-92
2021/11/15 08:29:22;;;;;;;;;;;;;;;;;;5021521;28;19912;-92
2021/11/15 08:31:47;;;;;;;;;;;;;;;;;;5021369;28;19913;-92
2021/11/15 08:34:13;;;;;;;;;;;;;;;;;;5021127;28;19917;-92
2021/11/15 08:36:38;;;;;;;;;;;;;;;;;;5037230;28;20023;-92
2021/11/15 08:39:04;;;;;;;;;;;;;;;;;;5018357;28;20368;-93
2021/11/15 08:41:34;;;;;;;;;;;;;;;;;;5018209;28;19935;-90
2021/11/15 08:44:00;;;;;;;;;;;;;;;;;;5017326;28;19917;-86
2021/11/15 08:46:26;;;;;;;;;;;;;;;;;;5028200;28;20298;-86
2021/11/15 08:48:51;;;;;;;;;;;;;;;;;;5020530;28;19917;-86
2021/11/15 08:51:17;;;;;;;;;;;;;;;;;;5020630;28;19912;-89
2021/11/15 08:53:42;;;;;;;;;;;;;;;;;;5021060;28;19920;-89
2021/11/15 08:56:08;;;;;;;;;;;;;;;;;;5037081;28;19920;-87
2021/11/15 08:58:33;;;;;;;;;;;;;;;;;;5020432;28;19912;-87
2021/11/15 09:00:59;;;;;;;;;;;;;;;;;;5036424;28;20370;-87
2021/11/15 09:03:24;;;;;;;;;;;;;;;;;;5020301;28;19966;-86
2021/11/15 09:05:50;;;;;;;;;;;;;;;;;;5020140;28;19952;-87
2021/11/15 09:08:16;;;;;;;;;;;;;;;;;;5020694;28;20394;-87
2021/11/15 09:10:41;;;;;;;;;;;;;;;;;;5020252;28;19913;-87
2021/11/15 09:13:07;;;;;;;;;;;;;;;;;;5020127;28;20398;-88
2021/11/15 09:15:32;;;;;;;;;;;;;;;;;;5020169;28;19917;-88
2021/11/15 09:17:57;;;;;;;;;;;;;;;;;;5036566;28;19913;-87
2021/11/15 09:20:23;;;;;;;;;;;;;;;;;;5019973;28;19982;-87
2021/11/15 09:22:48;;;;;;;;;;;;;;;;;;5020296;28;19916;-88
2021/11/15 09:25:15;;;;;;;;;;;;;;;;;;5020183;28;19962;-87
2021/11/15 09:27:41;;;;;;;;;;;;;;;;;;5019973;28;19913;-87
2021/11/15 09:30:07;;;;;;;;;;;;;;;;;;5019817;28;20256;-88
2021/11/15 09:32:33;;;;;;;;;;;;;;;;;;5019656;28;19917;-86
2021/11/15 09:34:59;;;;;;;;;;;;;;;;;;5020048;28;20386;-87
2021/11/15 09:37:24;;;;;;;;;;;;;;;;;;5016559;28;19925;-88
2021/11/15 09:39:50;;;;;;;;;;;;;;;;;;5016890;28;19920;-88
2021/11/15 09:42:16;;;;;;;;;;;;;;;;;;5016756;28;20423;-87
2021/11/15 09:44:41;;;;;;;;;;;;;;;;;;5016342;28;19970;-88
2021/11/15 09:47:06;;;;;;;;;;;;;;;;;;5032403;28;20363;-87
2021/11/15 09:49:32;;;;;;;;;;;;;;;;;;5019697;28;19913;-88
2021/11/15 09:51:57;;;;;;;;;;;;;;;;;;5019690;28;19983;-88
2021/11/15 09:54:22;;;;;;;;;;;;;;;;;;5019527;28;19913;-87
2021/11/15 09:56:48;;;;;;;;;;;;;;;;;;5019130;28;20011;-88
2021/11/15 09:59:14;;;;;;;;;;;;;;;;;;5019363;28;19982;-88
2021/11/15 10:01:40;;;;;;;;;;;;;;;;;;5035750;28;19917;-88
2021/11/15 10:04:05;;;;;;;;;;;;;;;;;;5019586;28;19913;-88
2021/11/15 10:06:30;;;;;;;;;;;;;;;;;;5052370;28;19921;-87
2021/11/15 10:08:56;;;;;;;;;;;;;;;;;;5052379;28;19913;-87
2021/11/15 10:11:22;;;;;;;;;;;;;;;;;;5035473;28;20287;-87
2021/11/15 10:13:48;;;;;;;;;;;;;;;;;;5035386;28;19951;-87
2021/11/15 10:16:14;;;;;;;;;;;;;;;;;;5035399;28;19952;-86
2021/11/15 10:18:58;;;;;;;;;;;;;;;;;;5035610;28;19921;-87
2021/11/15 10:21:32;;;;;;;;;;;;;;;;;;5052073;28;19927;-88
2021/11/15 10:24:00;;;;;;;;;;;;;;;;;;5035647;28;19913;-88
2021/11/15 10:26:31;;;;;;;;;;;;;;;;;;5035428;28;19917;-88
2021/11/15 10:28:59;;;;;;;;;;;;;;;;;;5051924;28;19920;-88
2021/11/15 10:31:30;;;;;;;;;;;;;;;;;;5051756;28;19927;-88
2021/11/15 10:33:55;;;;;;;;;;;;;;;;;;5035278;28;20011;-87
2021/11/15 10:36:41;;;;;;;;;;;;;;;;;;5052222;28;20391;-88
2021/11/15 10:39:06;;;;;;;;;;;;;;;;;;5035068;28;19917;-88
2021/11/15 10:41:31;;;;;;;;;;;;;;;;;;5019005;28;19917;-87
2021/11/15 10:43:57;;;;;;;;;;;;;;;;;;5035501;28;20252;-88
2021/11/15 10:46:30;;;;;;;;;;;;;;;;;;5018761;28;19913;-88
2021/11/15 10:48:56;;;;;;;;;;;;;;;;;;5019116;28;19912;-88
2021/11/15 10:51:41;;;;;;;;;;;;;;;;;;5018748;28;19917;-88
2021/11/15 10:54:27;;;;;;;;;;;;;;;;;;5019095;28;19967;-88
2021/11/15 10:56:54;;;;;;;;;;;;;;;;;;5018929;28;19920;-88
2021/11/15 10:59:19;;;;;;;;;;;;;;;;;;5017413;28;19924;-88
2021/11/15 11:01:45;;;;;;;;;;;;;;;;;;5051547;28;19917;-87
2021/11/15 11:04:11;;;;;;;;;;;;;;;;;;5018372;28;19917;-87
2021/11/15 11:06:55;;;;;;;;;;;;;;;;;;5017960;28;19917;-86
2021/11/15 11:09:36;;;;;;;;;;;;;;;;;;5018276;28;19909;-87
2021/11/15 11:12:09;;;;;;;;;;;;;;;;;;5051486;28;19960;-87
2021/11/15 11:14:35;;;;;;;;;;;;;;;;;;5034458;28;19963;-87
2021/11/15 11:17:02;;;;;;;;;;;;;;;;;;5034925;28;19913;-87
2021/11/15 11:19:37;;;;;;;;;;;;;;;;;;5018270;28;19913;-87
2021/11/15 11:27:25;;;;;;;;;;;;;;;;;;5051523;28;19912;-86
2021/11/15 11:29:52;;;;;;;;;;;;;;;;;;5050614;28;19940;-87
2021/11/15 11:32:18;;;;;;;;;;;;;;;;;;5034540;28;19963;-86
2021/11/15 11:34:43;;;;;;;;;;;;;;;;;;5034308;28;19912;-86
2021/11/15 11:37:13;;;;;;;;;;;;;;;;;;5034357;28;20378;-87
2021/11/15 11:39:39;;;;;;;;;;;;;;;;;;5017940;28;19966;-87
2021/11/15 11:42:04;;;;;;;;;;;;;;;;;;5034387;28;20387;-87
2021/11/15 11:44:30;;;;;;;;;;;;;;;;;;5017933;28;19999;-87
2021/11/15 11:46:56;;;;;;;;;;;;;;;;;;5018201;28;20410;-87
2021/11/15 11:49:24;;;;;;;;;;;;;;;;;;5017820;28;20405;-85
2021/11/15 11:51:50;;;;;;;;;;;;;;;;;;5018567;28;19956;-87
2021/11/15 11:54:41;;;;;;;;;;;;;;;;;;5017981;28;20219;-86
2021/11/15 11:57:08;;;;;;;;;;;;;;;;;;5032592;28;19912;-86
2021/11/15 11:59:34;;;;;;;;;;;;;;;;;;5033632;28;19959;-85
2021/11/15 12:02:02;;;;;;;;;;;;;;;;;;5017730;28;20387;-85
2021/11/15 12:04:29;;;;;;;;;;;;;;;;;;5017589;28;19932;-85
2021/11/15 12:06:54;;;;;;;;;;;;;;;;;;5033883;28;19962;-85
2021/11/15 12:09:23;;;;;;;;;;;;;;;;;;5017341;28;20320;-85
2021/11/15 12:11:59;;;;;;;;;;;;;;;;;;5053161;28;19919;-84
2021/11/15 12:14:43;;;;;;;;;;;;;;;;;;5021034;28;19912;-84
2021/11/15 12:17:15;;;;;;;;;;;;;;;;;;5020945;28;19913;-85
2021/11/15 12:19:47;;;;;;;;;;;;;;;;;;5020856;28;19917;-84
2021/11/15 12:22:17;;;;;;;;;;;;;;;;;;5037512;28;19913;-85
2021/11/15 12:25:02;;;;;;;;;;;;;;;;;;5053967;28;19913;-85
2021/11/15 12:27:37;;;;;;;;;;;;;;;;;;5032859;28;20447;-85
2021/11/15 12:30:16;;;;;;;;;;;;;;;;;;5053540;28;19963;-85
2021/11/15 12:32:42;;;;;;;;;;;;;;;;;;5037240;28;19916;-86
2021/11/15 12:35:07;;;;;;;;;;;;;;;;;;5037285;28;19960;-85
2021/11/15 12:37:40;;;;;;;;;;;;;;;;;;5017249;28;19964;-86
2021/11/15 12:40:06;;;;;;;;;;;;;;;;;;5017386;28;19917;-85
2021/11/15 12:42:31;;;;;;;;;;;;;;;;;;5016715;28;19917;-86
2021/11/15 12:45:06;;;;;;;;;;;;;;;;;;5017333;28;19914;-86
2021/11/15 12:47:35;;;;;;;;;;;;;;;;;;5037099;28;19939;-86
2021/11/15 12:50:01;;;;;;;;;;;;;;;;;;5020733;28;19917;-85
2021/11/15 12:52:27;;;;;;;;;;;;;;;;;;5020531;28;19913;-86
2021/11/15 12:54:53;;;;;;;;;;;;;;;;;;5020563;28;19913;-86
2021/11/15 12:57:18;;;;;;;;;;;;;;;;;;5036371;28;20398;-86
2021/11/15 12:59:44;;;;;;;;;;;;;;;;;;5036361;28;19919;-85
2021/11/15 13:02:09;;;;;;;;;;;;;;;;;;5019872;28;20375;-85
2021/11/15 13:04:35;;;;;;;;;;;;;;;;;;5019811;28;19917;-85
2021/11/15 13:07:00;;;;;;;;;;;;;;;;;;5037167;28;19920;-86
2021/11/15 13:09:26;;;;;;;;;;;;;;;;;;5036477;28;19917;-86
2021/11/15 13:11:51;;;;;;;;;;;;;;;;;;5020028;28;20534;-86
2021/11/15 13:14:16;;;;;;;;;;;;;;;;;;5053019;28;19916;-86
2021/11/15 13:16:44;;;;;;;;;;;;;;;;;;5020003;28;19912;-86
2021/11/15 13:19:10;;;;;;;;;;;;;;;;;;5020761;28;19982;-87
2021/11/15 13:21:40;;;;;;;;;;;;;;;;;;5019704;28;20426;-86
2021/11/15 13:24:05;;;;;;;;;;;;;;;;;;5036702;28;19920;-86
2021/11/15 13:26:32;;;;;;;;;;;;;;;;;;5019737;28;19917;-86
2021/11/15 13:28:58;;;;;;;;;;;;;;;;;;5019767;28;20363;-85
2021/11/15 13:31:24;;;;;;;;;;;;;;;;;;5019387;28;19962;-85
2021/11/15 13:33:49;;;;;;;;;;;;;;;;;;5035990;28;20063;-86
2021/11/15 13:36:14;;;;;;;;;;;;;;;;;;5036349;28;19924;-86
2021/11/15 13:38:40;;;;;;;;;;;;;;;;;;5015763;28;19963;-86
2021/11/15 13:41:06;;;;;;;;;;;;;;;;;;5016287;28;20274;-86
2021/11/15 13:43:31;;;;;;;;;;;;;;;;;;5016060;28;19967;-86
2021/11/15 13:45:57;;;;;;;;;;;;;;;;;;5023300;28;20295;-85
2021/11/15 13:48:22;;;;;;;;;;;;;;;;;;5035762;28;19975;-85
2021/11/15 13:50:48;;;;;;;;;;;;;;;;;;5019093;28;20283;-86
2021/11/15 13:53:14;;;;;;;;;;;;;;;;;;5035757;28;20357;-87
2021/11/15 13:55:39;;;;;;;;;;;;;;;;;;5035462;28;20011;-86
2021/11/15 13:58:04;;;;;;;;;;;;;;;;;;5035422;28;20003;-86
2021/11/15 14:00:30;;;;;;;;;;;;;;;;;;5018766;28;19913;-85
2021/11/15 14:02:55;;;;;;;;;;;;;;;;;;5019240;28;20350;-85
2021/11/15 14:05:21;;;;;;;;;;;;;;;;;;5019019;28;19928;-86
2021/11/15 14:07:46;;;;;;;;;;;;;;;;;;5018464;28;20298;-86
2021/11/15 14:10:11;;;;;;;;;;;;;;;;;;5018930;28;19920;-86
2021/11/15 14:12:37;;;;;;;;;;;;;;;;;;5031919;28;19913;-85
2021/11/15 14:15:02;;;;;;;;;;;;;;;;;;5015553;28;19936;-86
2021/11/15 14:17:29;;;;;;;;;;;;;;;;;;5015826;28;19963;-86
2021/11/15 14:19:54;;;;;;;;;;;;;;;;;;5015838;28;19917;-86
2021/11/15 14:22:19;;;;;;;;;;;;;;;;;;5015194;28;19924;-85
2021/11/15 14:24:46;;;;;;;;;;;;;;;;;;5015236;28;20291;-85
2021/11/15 14:27:12;;;;;;;;;;;;;;;;;;5015659;28;19917;-85
2021/11/15 14:29:37;;;;;;;;;;;;;;;;;;5014889;28;20283;-85
2021/11/15 14:32:03;;;;;;;;;;;;;;;;;;5015035;28;20318;-85
2021/11/15 14:34:29;;;;;;;;;;;;;;;;;;5014375;28;20365;-87
2021/11/15 14:36:55;;;;;;;;;;;;;;;;;;5016558;28;20673;-85
2021/11/15 14:39:22;;;;;;;;;;;;;;;;;;5018345;28;19947;-84
2021/11/15 14:41:47;;;;;;;;;;;;;;;;;;5018154;28;19917;-85
2021/11/15 14:44:14;;;;;;;;;;;;;;;;;;5018129;28;19909;-85
2021/11/15 14:46:39;;;;;;;;;;;;;;;;;;5051366;28;19916;-85
2021/11/15 14:49:04;;;;;;;;;;;;;;;;;;5034640;28;20308;-86
2021/11/15 14:51:30;;;;;;;;;;;;;;;;;;5017659;28;19932;-85
2021/11/15 14:53:56;;;;;;;;;;;;;;;;;;5034786;28;19909;-84
2021/11/15 14:56:21;;;;;;;;;;;;;;;;;;5034647;28;19917;-83
2021/11/15 14:58:48;;;;;;;;;;;;;;;;;;5029054;28;20298;-84
2021/11/15 15:01:14;;;;;;;;;;;;;;;;;;5031375;28;19920;-85
2021/11/15 15:03:39;;;;;;;;;;;;;;;;;;5030783;28;19924;-85
2021/11/15 15:06:04;;;;;;;;;;;;;;;;;;5014987;28;20358;-85
2021/11/15 15:08:30;;;;;;;;;;;;;;;;;;5031269;28;19936;-85
2021/11/15 15:10:55;;;;;;;;;;;;;;;;;;5031543;28;20437;-85
2021/11/15 15:13:20;;;;;;;;;;;;;;;;;;5017655;28;20366;-85
2021/11/15 15:15:45;;;;;;;;;;;;;;;;;;5018120;28;20438;-85
2021/11/15 15:18:11;;;;;;;;;;;;;;;;;;5017967;28;19917;-85
2021/11/15 15:20:37;;;;;;;;;;;;;;;;;;5017805;28;20298;-85
2021/11/15 15:23:03;;;;;;;;;;;;;;;;;;5034613;28;19935;-85
2021/11/15 15:25:29;;;;;;;;;;;;;;;;;;5034693;28;19967;-85
2021/11/15 15:27:55;;;;;;;;;;;;;;;;;;5034315;28;19964;-85
2021/11/15 15:30:21;;;;;;;;;;;;;;;;;;5017574;28;20311;-85
2021/11/15 15:32:46;;;;;;;;;;;;;;;;;;5033988;28;20000;-85
2021/11/15 15:35:12;;;;;;;;;;;;;;;;;;5017616;28;19952;-86
2021/11/15 15:37:41;;;;;;;;;;;;;;;;;;5050485;28;21842;-85
2021/11/15 15:40:07;;;;;;;;;;;;;;;;;;5050976;28;19917;-85
2021/11/15 15:42:32;;;;;;;;;;;;;;;;;;5017640;28;20259;-85
2021/11/15 15:44:58;;;;;;;;;;;;;;;;;;5017743;28;20081;-85
2021/11/15 15:47:24;;;;;;;;;;;;;;;;;;5018644;28;19913;-85
2021/11/15 15:49:55;;;;;;;;;;;;;;;;;;5001696;28;19917;-85
2021/11/15 15:52:20;;;;;;;;;;;;;;;;;;5019123;28;19964;-85
2021/11/15 15:54:45;;;;;;;;;;;;;;;;;;5002015;28;19948;-86
2021/11/15 15:57:11;;;;;;;;;;;;;;;;;;5006253;28;19920;-85
2021/11/15 15:59:36;;;;;;;;;;;;;;;;;;5020872;28;19917;-85
2021/11/15 16:02:01;;;;;;;;;;;;;;;;;;5021068;28;19917;-85
2021/11/15 16:07:08;;;;;;;;;;;;;;;;;;5054517;28;19912;-85
2021/11/15 16:10:03;;;;;;;;;;;;;;;;;;5023509;28;19963;-85
2021/11/15 16:18:08;;;;;;;;;;;;;;;;;;5053958;28;19913;-84
2021/11/15 16:20:34;;;;;;;;;;;;;;;;;;5053789;28;19948;-85
2021/11/15 16:22:59;;;;;;;;;;;;;;;;;;5020536;28;20396;-85
2021/11/15 16:25:24;;;;;;;;;;;;;;;;;;5037439;28;19916;-84
2021/11/15 16:27:50;;;;;;;;;;;;;;;;;;5037095;28;20420;-85
2021/11/15 16:30:15;;;;;;;;;;;;;;;;;;5037018;28;20326;-84
2021/11/15 16:32:41;;;;;;;;;;;;;;;;;;5053368;28;19967;-85
2021/11/15 16:35:06;;;;;;;;;;;;;;;;;;5020586;28;20317;-84
2021/11/15 16:37:32;;;;;;;;;;;;;;;;;;5033290;28;19913;-84
2021/11/15 16:39:57;;;;;;;;;;;;;;;;;;5017126;28;19936;-85
2021/11/15 16:42:22;;;;;;;;;;;;;;;;;;5016995;28;19967;-84
2021/11/15 16:44:49;;;;;;;;;;;;;;;;;;5033399;28;20383;-85
2021/11/15 16:47:14;;;;;;;;;;;;;;;;;;5036706;28;20016;-84
2021/11/15 16:49:39;;;;;;;;;;;;;;;;;;5020360;28;20003;-84
2021/11/15 16:52:05;;;;;;;;;;;;;;;;;;5036827;28;19921;-85
2021/11/15 16:54:30;;;;;;;;;;;;;;;;;;5036756;28;19919;-84
2021/11/15 16:56:56;;;;;;;;;;;;;;;;;;5035687;28;20107;-85
2021/11/15 16:59:23;;;;;;;;;;;;;;;;;;5036211;28;19924;-84
2021/11/15 17:01:56;;;;;;;;;;;;;;;;;;5019955;28;19920;-84